AAL1684 KDFW-KSAT
Flight info
| Callsign | AAL1684 |
|---|---|
| Flight time | 0h 43m |
| Altitude | 28000 |
| Route | JASPA7 WINDU QERVO3 |
| Aircraft | A21N/M-SDE2E3FGHIJ1RWXY/LB1 |
Departure
| Time | 2026-05-04 22:59 |
|---|---|
| Airport | Dallas Fort Worth International Airport (KDFW) |
Arrival
| Time | 2026-05-04 23:42 |
|---|---|
| Airport | San Antonio International Airport (KSAT) |
| Time | Latitude | Longitude | Altitude | Speed | Heading |
|---|---|---|---|---|---|
| 2026-05-04 22:34 | 32.90194 | -97.03644 | 589 ft | 0 kts | 328° |
| 2026-05-04 22:48 | 32.90192 | -97.03642 | 589 ft | 1 kts | 328° |
| 2026-05-04 22:48 | 32.90179 | -97.03633 | 588 ft | 2 kts | 328° |
| 2026-05-04 22:48 | 32.90166 | -97.03624 | 588 ft | 2 kts | 328° |
| 2026-05-04 22:48 | 32.90153 | -97.03614 | 588 ft | 2 kts | 328° |
| 2026-05-04 22:49 | 32.90142 | -97.03606 | 588 ft | 1 kts | 346° |
| 2026-05-04 22:49 | 32.90134 | -97.03607 | 588 ft | 1 kts | 46° |
| 2026-05-04 22:49 | 32.90131 | -97.03616 | 588 ft | 0 kts | 90° |
| 2026-05-04 22:49 | 32.90131 | -97.03624 | 588 ft | 0 kts | 92° |
| 2026-05-04 22:53 | 32.90131 | -97.03621 | 588 ft | 1 kts | 92° |
| 2026-05-04 22:53 | 32.90131 | -97.03590 | 587 ft | 6 kts | 90° |
| 2026-05-04 22:54 | 32.90132 | -97.03513 | 587 ft | 10 kts | 90° |
| 2026-05-04 22:54 | 32.90132 | -97.03416 | 585 ft | 12 kts | 90° |
| 2026-05-04 22:54 | 32.90149 | -97.03327 | 582 ft | 9 kts | 34° |
| 2026-05-04 22:54 | 32.90238 | -97.03314 | 582 ft | 15 kts | 359° |
| 2026-05-04 22:55 | 32.90347 | -97.03316 | 583 ft | 15 kts | 359° |
| 2026-05-04 22:55 | 32.90435 | -97.03315 | 583 ft | 15 kts | 359° |
| 2026-05-04 22:55 | 32.90504 | -97.03313 | 583 ft | 15 kts | 2° |
| 2026-05-04 22:56 | 32.90616 | -97.03309 | 584 ft | 15 kts | 1° |
| 2026-05-04 22:56 | 32.90731 | -97.03306 | 583 ft | 17 kts | 1° |
| 2026-05-04 22:56 | 32.90853 | -97.03304 | 582 ft | 17 kts | 0° |
| 2026-05-04 22:56 | 32.90977 | -97.03301 | 582 ft | 17 kts | 8° |
| 2026-05-04 22:57 | 32.91117 | -97.03277 | 580 ft | 23 kts | 4° |
| 2026-05-04 22:57 | 32.91293 | -97.03272 | 577 ft | 29 kts | 1° |
| 2026-05-04 22:57 | 32.91457 | -97.03254 | 575 ft | 17 kts | 40° |
| 2026-05-04 22:57 | 32.91491 | -97.03117 | 573 ft | 17 kts | 91° |
| 2026-05-04 22:58 | 32.91465 | -97.02998 | 571 ft | 13 kts | 154° |
| 2026-05-04 22:58 | 32.91282 | -97.02991 | 573 ft | 56 kts | 180° |
| 2026-05-04 22:58 | 32.90638 | -97.02995 | 576 ft | 124 kts | 180° |
| 2026-05-04 22:58 | 32.89574 | -97.03005 | 695 ft | 167 kts | 180° |
| 2026-05-04 22:59 | 32.88395 | -97.03031 | 1404 ft | 170 kts | 179° |
| 2026-05-04 22:59 | 32.87200 | -97.03007 | 2201 ft | 173 kts | 181° |
| 2026-05-04 22:59 | 32.85995 | -97.02952 | 2956 ft | 173 kts | 181° |
| 2026-05-04 22:59 | 32.84718 | -97.02958 | 3414 ft | 189 kts | 184° |
| 2026-05-04 23:00 | 32.83310 | -97.02989 | 3792 ft | 211 kts | 184° |
| 2026-05-04 23:00 | 32.81739 | -97.03014 | 4248 ft | 231 kts | 184° |
| 2026-05-04 23:00 | 32.80164 | -97.03025 | 4839 ft | 243 kts | 184° |
| 2026-05-04 23:00 | 32.78424 | -97.03024 | 5619 ft | 250 kts | 184° |
| 2026-05-04 23:01 | 32.76663 | -97.03019 | 6406 ft | 255 kts | 185° |
| 2026-05-04 23:01 | 32.74874 | -97.03020 | 7191 ft | 260 kts | 186° |
| 2026-05-04 23:01 | 32.73033 | -97.03022 | 7989 ft | 265 kts | 186° |
| 2026-05-04 23:01 | 32.71178 | -97.02886 | 8744 ft | 275 kts | 176° |
| 2026-05-04 23:02 | 32.69365 | -97.02332 | 9402 ft | 289 kts | 165° |
| 2026-05-04 23:02 | 32.67417 | -97.01394 | 10019 ft | 303 kts | 162° |
| 2026-05-04 23:02 | 32.65424 | -97.00350 | 10647 ft | 315 kts | 161° |
| 2026-05-04 23:02 | 32.63358 | -96.99271 | 11082 ft | 333 kts | 161° |
| 2026-05-04 23:03 | 32.61066 | -96.98460 | 11468 ft | 344 kts | 176° |
| 2026-05-04 23:03 | 32.58577 | -96.98438 | 11860 ft | 353 kts | 193° |
| 2026-05-04 23:03 | 32.56113 | -96.99005 | 12472 ft | 360 kts | 197° |
| 2026-05-04 23:03 | 32.53704 | -96.99628 | 13166 ft | 365 kts | 197° |
| 2026-05-04 23:04 | 32.51139 | -97.00288 | 13847 ft | 371 kts | 197° |
| 2026-05-04 23:04 | 32.48570 | -97.00937 | 14558 ft | 375 kts | 197° |
| 2026-05-04 23:04 | 32.45985 | -97.01583 | 15262 ft | 379 kts | 197° |
| 2026-05-04 23:04 | 32.43380 | -97.02228 | 15954 ft | 383 kts | 198° |
| 2026-05-04 23:05 | 32.40702 | -97.02891 | 16641 ft | 387 kts | 198° |
| 2026-05-04 23:05 | 32.38034 | -97.03550 | 17297 ft | 391 kts | 198° |
| 2026-05-04 23:05 | 32.35325 | -97.04219 | 17938 ft | 395 kts | 198° |
| 2026-05-04 23:05 | 32.32575 | -97.04894 | 18554 ft | 400 kts | 199° |
| 2026-05-04 23:06 | 32.29767 | -97.05490 | 19165 ft | 406 kts | 195° |
| 2026-05-04 23:06 | 32.26884 | -97.05886 | 19737 ft | 414 kts | 192° |
| 2026-05-04 23:06 | 32.23905 | -97.06068 | 20320 ft | 421 kts | 189° |
| 2026-05-04 23:06 | 32.20905 | -97.06165 | 20881 ft | 426 kts | 189° |
| 2026-05-04 23:07 | 32.17883 | -97.06252 | 21393 ft | 431 kts | 189° |
| 2026-05-04 23:07 | 32.14791 | -97.06342 | 21894 ft | 435 kts | 190° |
| 2026-05-04 23:07 | 32.11713 | -97.06434 | 22411 ft | 439 kts | 190° |
| 2026-05-04 23:07 | 32.08570 | -97.06531 | 22850 ft | 445 kts | 191° |
| 2026-05-04 23:08 | 32.05395 | -97.06631 | 23308 ft | 450 kts | 191° |
| 2026-05-04 23:08 | 32.02362 | -97.06725 | 23874 ft | 450 kts | 191° |
| 2026-05-04 23:08 | 31.99183 | -97.06821 | 24599 ft | 447 kts | 191° |
| 2026-05-04 23:08 | 31.95997 | -97.06917 | 25269 ft | 445 kts | 191° |
| 2026-05-04 23:09 | 31.92885 | -97.07011 | 25886 ft | 443 kts | 192° |
| 2026-05-04 23:09 | 31.89931 | -97.07103 | 26424 ft | 443 kts | 192° |
| 2026-05-04 23:09 | 31.86883 | -97.07201 | 26891 ft | 445 kts | 192° |
| 2026-05-04 23:09 | 31.84699 | -97.07272 | 27181 ft | 447 kts | 192° |
| 2026-05-04 23:10 | 31.82108 | -97.07355 | 27513 ft | 449 kts | 192° |
| 2026-05-04 23:10 | 31.79315 | -97.07444 | 27797 ft | 451 kts | 192° |
| 2026-05-04 23:10 | 31.76391 | -97.07536 | 27833 ft | 452 kts | 192° |
| 2026-05-04 23:10 | 31.73660 | -97.07622 | 27829 ft | 454 kts | 192° |
| 2026-05-04 23:11 | 31.70739 | -97.07715 | 27836 ft | 454 kts | 192° |
| 2026-05-04 23:11 | 31.68819 | -97.07773 | 27841 ft | 453 kts | 192° |
| 2026-05-04 23:11 | 31.67842 | -97.07803 | 27845 ft | 453 kts | 192° |
| 2026-05-04 23:11 | 31.65599 | -97.07872 | 27844 ft | 454 kts | 192° |
| 2026-05-04 23:12 | 31.62308 | -97.07973 | 27839 ft | 454 kts | 192° |
| 2026-05-04 23:12 | 31.59110 | -97.08070 | 27846 ft | 453 kts | 192° |
| 2026-05-04 23:12 | 31.55902 | -97.08209 | 27844 ft | 449 kts | 195° |
| 2026-05-04 23:12 | 31.52815 | -97.08662 | 27840 ft | 440 kts | 201° |
| 2026-05-04 23:13 | 31.49826 | -97.09490 | 27839 ft | 435 kts | 208° |
| 2026-05-04 23:13 | 31.46915 | -97.10590 | 27850 ft | 435 kts | 210° |
| 2026-05-04 23:13 | 31.43999 | -97.11753 | 27842 ft | 435 kts | 210° |
| 2026-05-04 23:13 | 31.41127 | -97.12903 | 27841 ft | 436 kts | 210° |
| 2026-05-04 23:14 | 31.38223 | -97.14056 | 27832 ft | 436 kts | 210° |
| 2026-05-04 23:14 | 31.35316 | -97.15203 | 27835 ft | 437 kts | 210° |
| 2026-05-04 23:14 | 31.32392 | -97.16352 | 27832 ft | 436 kts | 210° |
| 2026-05-04 23:14 | 31.29516 | -97.17479 | 27834 ft | 437 kts | 210° |
| 2026-05-04 23:15 | 31.26582 | -97.18627 | 27835 ft | 437 kts | 210° |
| 2026-05-04 23:15 | 31.23680 | -97.19762 | 27844 ft | 438 kts | 210° |
| 2026-05-04 23:15 | 31.20783 | -97.20893 | 27842 ft | 438 kts | 210° |
| 2026-05-04 23:15 | 31.17887 | -97.22021 | 27841 ft | 437 kts | 210° |
| 2026-05-04 23:16 | 31.14960 | -97.23162 | 27843 ft | 436 kts | 210° |
| 2026-05-04 23:16 | 31.12116 | -97.24270 | 27839 ft | 436 kts | 210° |
| 2026-05-04 23:16 | 31.09202 | -97.25404 | 27842 ft | 436 kts | 210° |
| 2026-05-04 23:16 | 31.06290 | -97.26537 | 27844 ft | 437 kts | 210° |
| 2026-05-04 23:17 | 31.03364 | -97.27678 | 27839 ft | 437 kts | 210° |
| 2026-05-04 23:17 | 31.00458 | -97.28809 | 27842 ft | 437 kts | 210° |
| 2026-05-04 23:17 | 30.97582 | -97.29924 | 27842 ft | 437 kts | 210° |
| 2026-05-04 23:17 | 30.94665 | -97.31058 | 27846 ft | 437 kts | 210° |
| 2026-05-04 23:18 | 30.91782 | -97.32176 | 27853 ft | 438 kts | 210° |
| 2026-05-04 23:18 | 30.88826 | -97.33322 | 27848 ft | 438 kts | 210° |
| 2026-05-04 23:18 | 30.85904 | -97.34456 | 27851 ft | 438 kts | 210° |
| 2026-05-04 23:18 | 30.83122 | -97.35534 | 27847 ft | 437 kts | 210° |
| 2026-05-04 23:19 | 30.80216 | -97.36659 | 27849 ft | 437 kts | 210° |
| 2026-05-04 23:19 | 30.77595 | -97.37674 | 27851 ft | 437 kts | 210° |
| 2026-05-04 23:19 | 30.74596 | -97.38833 | 27856 ft | 437 kts | 210° |
| 2026-05-04 23:19 | 30.71766 | -97.39927 | 27857 ft | 436 kts | 209° |
| 2026-05-04 23:20 | 30.68880 | -97.41039 | 27854 ft | 436 kts | 210° |
| 2026-05-04 23:20 | 30.65943 | -97.42174 | 27851 ft | 437 kts | 209° |
| 2026-05-04 23:20 | 30.63049 | -97.43291 | 27856 ft | 438 kts | 209° |
| 2026-05-04 23:20 | 30.60158 | -97.44407 | 27857 ft | 437 kts | 209° |
| 2026-05-04 23:21 | 30.57214 | -97.45543 | 27651 ft | 439 kts | 209° |
| 2026-05-04 23:21 | 30.54303 | -97.46662 | 27406 ft | 436 kts | 209° |
| 2026-05-04 23:21 | 30.51438 | -97.47762 | 27161 ft | 433 kts | 209° |
| 2026-05-04 23:21 | 30.48557 | -97.48869 | 26865 ft | 430 kts | 209° |
| 2026-05-04 23:22 | 30.45721 | -97.49959 | 26424 ft | 429 kts | 209° |
| 2026-05-04 23:22 | 30.42889 | -97.51048 | 25868 ft | 428 kts | 209° |
| 2026-05-04 23:22 | 30.40070 | -97.52190 | 25202 ft | 425 kts | 211° |
| 2026-05-04 23:22 | 30.37377 | -97.53529 | 24538 ft | 420 kts | 215° |
| 2026-05-04 23:23 | 30.34772 | -97.55102 | 23876 ft | 415 kts | 219° |
| 2026-05-04 23:23 | 30.32308 | -97.56788 | 23376 ft | 409 kts | 220° |
| 2026-05-04 23:23 | 30.29863 | -97.58480 | 22880 ft | 405 kts | 220° |
| 2026-05-04 23:23 | 30.27432 | -97.60166 | 22382 ft | 401 kts | 220° |
| 2026-05-04 23:24 | 30.25024 | -97.61838 | 21884 ft | 398 kts | 220° |
| 2026-05-04 23:24 | 30.22649 | -97.63483 | 21385 ft | 394 kts | 220° |
| 2026-05-04 23:24 | 30.20301 | -97.65108 | 20871 ft | 392 kts | 219° |
| 2026-05-04 23:24 | 30.17896 | -97.66772 | 20333 ft | 390 kts | 219° |
| 2026-05-04 23:25 | 30.15672 | -97.68307 | 19845 ft | 388 kts | 219° |
| 2026-05-04 23:25 | 30.13464 | -97.69830 | 19362 ft | 386 kts | 219° |
| 2026-05-04 23:25 | 30.11153 | -97.71425 | 18842 ft | 385 kts | 219° |
| 2026-05-04 23:25 | 30.08851 | -97.73013 | 18334 ft | 383 kts | 218° |
| 2026-05-04 23:26 | 30.06548 | -97.74599 | 17819 ft | 381 kts | 218° |
| 2026-05-04 23:26 | 30.04276 | -97.76163 | 17308 ft | 380 kts | 218° |
| 2026-05-04 23:26 | 30.01998 | -97.77732 | 16808 ft | 378 kts | 218° |
| 2026-05-04 23:26 | 29.99812 | -97.79236 | 16332 ft | 377 kts | 218° |
| 2026-05-04 23:27 | 29.97559 | -97.80786 | 15838 ft | 375 kts | 217° |
| 2026-05-04 23:27 | 29.95260 | -97.82365 | 15332 ft | 372 kts | 217° |
| 2026-05-04 23:27 | 29.93038 | -97.83888 | 14842 ft | 370 kts | 217° |
| 2026-05-04 23:27 | 29.90947 | -97.85552 | 14323 ft | 361 kts | 228° |
| 2026-05-04 23:28 | 29.89447 | -97.87618 | 13881 ft | 349 kts | 242° |
| 2026-05-04 23:28 | 29.88373 | -97.90241 | 13392 ft | 341 kts | 252° |
| 2026-05-04 23:28 | 29.87549 | -97.92783 | 13079 ft | 332 kts | 253° |
| 2026-05-04 23:28 | 29.86745 | -97.95296 | 12907 ft | 319 kts | 253° |
| 2026-05-04 23:29 | 29.86007 | -97.97550 | 12527 ft | 316 kts | 253° |
| 2026-05-04 23:29 | 29.85214 | -97.99942 | 12050 ft | 315 kts | 252° |
| 2026-05-04 23:29 | 29.84432 | -98.02293 | 11607 ft | 313 kts | 252° |
| 2026-05-04 23:29 | 29.83645 | -98.04658 | 11161 ft | 312 kts | 252° |
| 2026-05-04 23:30 | 29.82874 | -98.06972 | 10737 ft | 310 kts | 252° |
| 2026-05-04 23:30 | 29.82107 | -98.09274 | 10372 ft | 305 kts | 252° |
| 2026-05-04 23:30 | 29.81361 | -98.11513 | 10221 ft | 293 kts | 251° |
| 2026-05-04 23:30 | 29.80642 | -98.13661 | 10095 ft | 281 kts | 251° |
| 2026-05-04 23:31 | 29.79956 | -98.15717 | 9952 ft | 270 kts | 252° |
| 2026-05-04 23:31 | 29.79282 | -98.17741 | 9596 ft | 269 kts | 252° |
| 2026-05-04 23:31 | 29.78615 | -98.19752 | 9231 ft | 268 kts | 251° |
| 2026-05-04 23:31 | 29.77951 | -98.21760 | 8867 ft | 268 kts | 251° |
| 2026-05-04 23:32 | 29.77286 | -98.23757 | 8514 ft | 266 kts | 251° |
| 2026-05-04 23:32 | 29.76620 | -98.25754 | 8188 ft | 264 kts | 250° |
| 2026-05-04 23:32 | 29.75970 | -98.27705 | 7837 ft | 263 kts | 250° |
| 2026-05-04 23:32 | 29.75317 | -98.29664 | 7499 ft | 262 kts | 250° |
| 2026-05-04 23:33 | 29.74660 | -98.31630 | 7154 ft | 260 kts | 250° |
| 2026-05-04 23:33 | 29.74017 | -98.33553 | 6818 ft | 259 kts | 249° |
| 2026-05-04 23:33 | 29.73372 | -98.35480 | 6482 ft | 258 kts | 249° |
| 2026-05-04 23:33 | 29.72732 | -98.37419 | 6151 ft | 257 kts | 249° |
| 2026-05-04 23:34 | 29.72113 | -98.39334 | 5977 ft | 247 kts | 249° |
| 2026-05-04 23:34 | 29.71532 | -98.41139 | 5963 ft | 231 kts | 249° |
| 2026-05-04 23:34 | 29.71066 | -98.42848 | 5949 ft | 218 kts | 258° |
| 2026-05-04 23:34 | 29.70938 | -98.44607 | 5962 ft | 218 kts | 269° |
| 2026-05-04 23:35 | 29.70982 | -98.46343 | 5969 ft | 219 kts | 270° |
| 2026-05-04 23:35 | 29.71047 | -98.48115 | 5972 ft | 220 kts | 270° |
| 2026-05-04 23:35 | 29.71113 | -98.49874 | 5972 ft | 220 kts | 270° |
| 2026-05-04 23:35 | 29.71174 | -98.51640 | 5974 ft | 220 kts | 270° |
| 2026-05-04 23:36 | 29.71233 | -98.53406 | 5950 ft | 220 kts | 270° |
| 2026-05-04 23:36 | 29.71292 | -98.55177 | 5639 ft | 221 kts | 269° |
| 2026-05-04 23:36 | 29.71338 | -98.56920 | 5335 ft | 220 kts | 266° |
| 2026-05-04 23:36 | 29.71036 | -98.58630 | 4993 ft | 215 kts | 241° |
| 2026-05-04 23:37 | 29.70096 | -98.59896 | 4683 ft | 210 kts | 211° |
| 2026-05-04 23:37 | 29.68747 | -98.60513 | 4422 ft | 207 kts | 198° |
| 2026-05-04 23:37 | 29.67437 | -98.61231 | 4289 ft | 208 kts | 216° |
| 2026-05-04 23:37 | 29.66301 | -98.62221 | 4216 ft | 196 kts | 208° |
| 2026-05-04 23:38 | 29.65010 | -98.62378 | 3938 ft | 189 kts | 163° |
| 2026-05-04 23:38 | 29.64032 | -98.61435 | 3702 ft | 177 kts | 133° |
| 2026-05-04 23:38 | 29.63323 | -98.60332 | 3405 ft | 165 kts | 132° |
| 2026-05-04 23:38 | 29.62629 | -98.59327 | 3147 ft | 151 kts | 135° |
| 2026-05-04 23:39 | 29.61972 | -98.58443 | 2934 ft | 140 kts | 136° |
| 2026-05-04 23:39 | 29.61359 | -98.57649 | 2773 ft | 139 kts | 137° |
| 2026-05-04 23:39 | 29.60709 | -98.56814 | 2610 ft | 139 kts | 137° |
| 2026-05-04 23:39 | 29.60056 | -98.55978 | 2442 ft | 139 kts | 137° |
| 2026-05-04 23:40 | 29.59401 | -98.55136 | 2265 ft | 139 kts | 136° |
| 2026-05-04 23:40 | 29.58754 | -98.54308 | 2090 ft | 138 kts | 136° |
| 2026-05-04 23:40 | 29.58110 | -98.53479 | 1907 ft | 138 kts | 136° |
| 2026-05-04 23:40 | 29.57472 | -98.52666 | 1732 ft | 137 kts | 137° |
| 2026-05-04 23:41 | 29.56826 | -98.51855 | 1554 ft | 137 kts | 136° |
| 2026-05-04 23:41 | 29.56195 | -98.51028 | 1371 ft | 137 kts | 135° |
| 2026-05-04 23:41 | 29.55557 | -98.50207 | 1204 ft | 136 kts | 135° |
| 2026-05-04 23:41 | 29.54918 | -98.49382 | 1009 ft | 135 kts | 135° |
| 2026-05-04 23:42 | 29.54297 | -98.48579 | 851 ft | 134 kts | 135° |
| 2026-05-04 23:42 | 29.53717 | -98.47839 | 800 ft | 112 kts | 133° |
| 2026-05-04 23:42 | 29.53311 | -98.47315 | 794 ft | 63 kts | 131° |
| 2026-05-04 23:42 | 29.53111 | -98.47074 | 791 ft | 23 kts | 160° |
| 2026-05-04 23:43 | 29.53029 | -98.47148 | 792 ft | 16 kts | 278° |
| 2026-05-04 23:43 | 29.52976 | -98.47234 | 794 ft | 11 kts | 194° |
| 2026-05-04 23:43 | 29.52935 | -98.47234 | 794 ft | 0 kts | 178° |
| 2026-05-04 23:43 | 29.52932 | -98.47234 | 794 ft | 0 kts | 178° |